WetterOnline ( https://www.wetteronline.de )

Wetter aktuell Sangerhausen

Aktuelles Wetter: Harzgerode (405m)

6-stündlich | Neueste Meldungen
Ortszeit Temperatur Wetter
Mi, 16.06. 14:00 23.8° C fast wolkenlos
Mi, 16.06. 8:00 16.4° C wolkenlos
Mi, 16.06. 2:00 11.5° C wolkig
Di, 15.06. 20:00 19.1° C leicht bewölkt
Di, 15.06. 14:00 20.4° C bedeckt
Di, 15.06. 8:00 17.1° C leicht bewölkt
Di, 15.06. 2:00 11.3° C wolkenlos
Mo, 14.06. 20:00 23.2° C leicht bewölkt
Ortszeit Temperatur Wetter
Mi, 16.06. 16:30 25.1° C leicht bewölkt
Mi, 16.06. 16:20 25.1° C leicht bewölkt
Mi, 16.06. 16:10 24.8° C leicht bewölkt
Mi, 16.06. 16:00 24.9° C wolkenlos
Mi, 16.06. 15:50 24.9° C wolkenlos
Mi, 16.06. 15:40 24.9° C wolkenlos
Mi, 16.06. 15:30 24.7° C fast wolkenlos
Mi, 16.06. 15:00 24.8° C fast wolkenlos
Mi, 16.06. 14:30 24.1° C leicht bewölkt
Mi, 16.06. 14:00 23.8° C fast wolkenlos
Mi, 16.06. 13:30 24.4° C wolkenlos
Mi, 16.06. 13:00 23.5° C wolkenlos
Ortszeit Relative Feuchte Sichtweite
Mi, 16.06. 14:00 56% 27 km
Mi, 16.06. 8:00 72% 45 km
Mi, 16.06. 2:00 93% 26 km
Di, 15.06. 20:00 68% 55 km
Di, 15.06. 14:00 68% 27 km
Di, 15.06. 8:00 73% 35 km
Di, 15.06. 2:00 94% 25 km
Mo, 14.06. 20:00 50% 55 km
Ortszeit Relative Feuchte Sichtweite
Mi, 16.06. 16:30 53% 30 km
Mi, 16.06. 16:20 53% -
Mi, 16.06. 16:10 53% -
Mi, 16.06. 16:00 55% 24 km
Mi, 16.06. 15:50 55% -
Mi, 16.06. 15:40 56% -
Mi, 16.06. 15:30 55% 30 km
Mi, 16.06. 15:00 56% 29 km
Mi, 16.06. 14:30 56% 30 km
Mi, 16.06. 14:00 56% 27 km
Mi, 16.06. 13:30 59% 29 km
Mi, 16.06. 13:00 63% 26 km
Ortszeit Niederschlagsmenge Niederschlagsart
Mi, 16.06. 14:00 0.0 l/m2 in 6 Std. -
Mi, 16.06. 8:00 0.0 l/m2 in 12 Std. -
Mi, 16.06. 2:00 0.0 l/m2 in 6 Std. -
Di, 15.06. 20:00 0.1 l/m2 in 12 Std. Regen
Di, 15.06. 14:00 0.0 l/m2 in 6 Std. -
Di, 15.06. 8:00 0.0 l/m2 in 12 Std. -
Di, 15.06. 2:00 0.0 l/m2 in 6 Std. -
Mo, 14.06. 20:00 0.0 l/m2 in 12 Std. -
Ortszeit Niederschlagsmenge Niederschlagsart
Mi, 16.06. 16:30 0.0 l/m2 in 1 Std. -
Mi, 16.06. 16:20 keine Meldung -
Mi, 16.06. 16:10 keine Meldung -
Mi, 16.06. 16:00 0.0 l/m2 in 1 Std. -
Mi, 16.06. 15:50 keine Meldung -
Mi, 16.06. 15:40 keine Meldung -
Mi, 16.06. 15:30 0.0 l/m2 in 1 Std. -
Mi, 16.06. 15:00 0.0 l/m2 in 1 Std. -
Mi, 16.06. 14:30 0.0 l/m2 in 1 Std. -
Mi, 16.06. 14:00 0.0 l/m2 in 1 Std. -
Mi, 16.06. 13:30 0.0 l/m2 in 1 Std. -
Mi, 16.06. 13:00 0.0 l/m2 in 1 Std. -
Ortszeit Stärke Spitze Richtung
km/h Bft. km/h Grad Sektor
Mi, 16.06. 14:00 13 3 24 130° SO
Mi, 16.06. 8:00 0 0 11 - -
Mi, 16.06. 2:00 4 1 14 300° NW
Di, 15.06. 20:00 9 2 26 10° N
Di, 15.06. 14:00 14 3 22 360° N
Di, 15.06. 8:00 7 2 14 10° N
Di, 15.06. 2:00 9 2 15 240° SW
Mo, 14.06. 20:00 6 1 26 270° W
Ortszeit Stärke Spitze Richtung
km/h Bft. km/h Grad Sektor
Mi, 16.06. 16:30 13 3 22 130° SO
Mi, 16.06. 16:20 13 3 - 130° SO
Mi, 16.06. 16:10 13 3 - 130° SO
Mi, 16.06. 16:00 13 3 26 130° SO
Mi, 16.06. 15:50 13 3 - 130° SO
Mi, 16.06. 15:40 11 2 - 130° SO
Mi, 16.06. 15:30 13 3 26 140° SO
Mi, 16.06. 15:00 13 3 24 120° SO
Mi, 16.06. 14:30 13 3 24 140° SO
Mi, 16.06. 14:00 13 3 24 130° SO
Mi, 16.06. 13:30 13 3 22 130° SO
Mi, 16.06. 13:00 13 3 22 130° SO
Ortszeit Untergrenze Bedeckung Gattung
total tief tief mittel hoch
Mi, 16.06. 14:00 10500 m 2/8 0/8 - - -
Mi, 16.06. 8:00 - 0/8 0/8 - - -
Mi, 16.06. 2:00 8700 m 8/8 0/8 - - -
Di, 15.06. 20:00 9000 m 3/8 0/8 - - -
Di, 15.06. 14:00 4500 m 8/8 8/8 - - -
Di, 15.06. 8:00 8100 m 7/8 0/8 - - -
Di, 15.06. 2:00 - 0/8 0/8 - - -
Mo, 14.06. 20:00 9000 m 3/8 0/8 - - -
Ortszeit Bedeckungsgrad in Achtel und Wolkenuntergrenze
Mi, 16.06. 16:30 5(10500m)
Mi, 16.06. 16:20 5(10500m)
Mi, 16.06. 16:10 6(10500m)
Mi, 16.06. 16:00 4(10500m)
Mi, 16.06. 15:50 keine Wolken
Mi, 16.06. 15:40 keine Wolken
Mi, 16.06. 15:30 1(1260m) 2(1500m)
Mi, 16.06. 15:00 1(1050m)
Mi, 16.06. 14:30 1(1170m)
Mi, 16.06. 14:00 2(10500m) 4(10500m)
Mi, 16.06. 13:30 keine Wolken
Mi, 16.06. 13:00 keine Wolken
Ortszeit Luftdruck NN (hPa) Tendenz (hPa in 3 Std.)
Mi, 16.06. 14:00 1016 - 0,9
Mi, 16.06. 8:00 1018 - 0,3
Mi, 16.06. 2:00 1020 - 0,4
Di, 15.06. 20:00 1019 - 0,4
Di, 15.06. 14:00 1019 - 0,1
Di, 15.06. 8:00 1019 + 1,0
Di, 15.06. 2:00 1019 - 0,6
Mo, 14.06. 20:00 1017 - 1,3
Ortszeit Luftdruck NN (hPa) Tendenz (hPa in 3 Std.)
Mi, 16.06. 16:30 1015 - 1,1
Mi, 16.06. 16:20 1015 keine Meldung
Mi, 16.06. 16:10 1015 keine Meldung
Mi, 16.06. 16:00 1015 - 1,2
Mi, 16.06. 15:50 1015 keine Meldung
Mi, 16.06. 15:40 1015 keine Meldung
Mi, 16.06. 15:30 1015 - 1,1
Mi, 16.06. 15:00 1015 - 1,2
Mi, 16.06. 14:30 1016 - 1,0
Mi, 16.06. 14:00 1016 - 0,9
Mi, 16.06. 13:30 1016 - 0,8
Mi, 16.06. 13:00 1016 - 0,4
Ortszeit Schneehöhe (cm)
Mi, 16.06. 14:00 -
Mi, 16.06. 8:00 -
Mi, 16.06. 2:00 -
Di, 15.06. 20:00 -
Di, 15.06. 14:00 -
Di, 15.06. 8:00 -
Di, 15.06. 2:00 -
Mo, 14.06. 20:00 -
Ortszeit Schneehöhe (cm)
Mi, 16.06. 16:30 -
Mi, 16.06. 16:20 -
Mi, 16.06. 16:10 -
Mi, 16.06. 16:00 -
Mi, 16.06. 15:50 -
Mi, 16.06. 15:40 -
Mi, 16.06. 15:30 -
Mi, 16.06. 15:00 -
Mi, 16.06. 14:30 -
Mi, 16.06. 14:00 -
Mi, 16.06. 13:30 -
Mi, 16.06. 13:00 -
Link zu dieser Seite / Seite empfehlen

Das Wetter in ...